Time;durP1;ratioP1;P1;durP2;ratioP2;P2;SDS_P1;SDS_P2;PMS_P1;PMS_P2;Temp;Humidity;BMP_temperature;BMP_pressure;BME280_temperature;BME280_humidity;BME280_pressure;Samples;Min_cycle;Max_cycle;Signal;HPM_P1;HPM_P2
2024/02/16 00:01:13;;;;;;;23.60;9.60;;;12.40;99.90;;;11.22;100.00;101097.56;5072712;28;20090;-82
2024/02/16 00:03:42;;;;;;;26.10;9.43;;;12.40;99.90;;;11.21;100.00;101100.25;5089536;28;20048;-83
2024/02/16 00:06:18;;;;;;;18.60;9.23;;;;;;;11.13;100.00;101100.59;5072502;28;20089;-83
2024/02/16 00:08:43;;;;;;;26.13;9.80;;;12.20;99.90;;;11.04;100.00;101095.72;5087361;28;20055;-84
2024/02/16 00:11:41;;;;;;;25.05;11.35;;;12.20;99.90;;;10.96;100.00;101090.78;5080290;28;20035;-84
2024/02/16 00:14:04;;;;;;;23.80;11.27;;;12.10;99.90;;;10.87;100.00;101086.75;5087285;28;20445;-82
2024/02/16 00:16:37;;;;;;;32.40;11.00;;;;;;;10.82;100.00;101083.47;5077293;28;20035;-82
2024/02/16 00:19:03;;;;;;;22.75;11.30;;;12.00;99.90;;;10.75;100.00;101079.34;5085508;28;20096;-84
2024/02/16 00:21:34;;;;;;;24.52;11.60;;;11.90;99.90;;;10.66;100.00;101077.09;5069378;28;20571;-83
2024/02/16 00:24:08;;;;;;;26.30;11.70;;;11.80;99.90;;;10.61;100.00;101068.56;5085391;28;20024;-84
2024/02/16 00:26:34;;;;;;;32.33;13.50;;;11.80;99.90;;;10.54;100.00;101064.44;5078130;28;20024;-84
2024/02/16 00:29:02;;;;;;;44.25;13.55;;;11.80;99.90;;;10.52;100.00;101071.53;5076160;28;20016;-83
2024/02/16 00:31:38;;;;;;;29.77;13.45;;;11.70;99.90;;;10.44;100.00;101070.09;5072959;28;20035;-83
2024/02/16 00:34:04;;;;;;;39.77;13.67;;;11.60;99.90;;;10.40;100.00;101065.84;5085775;28;20528;-83
2024/02/16 00:36:37;;;;;;;33.03;14.48;;;;;;;10.34;100.00;101065.25;5085451;28;20281;-83
2024/02/16 00:39:03;;;;;;;45.10;15.85;;;;;;;10.29;100.00;101070.72;5087274;28;20043;-84
2024/02/16 00:41:35;;;;;;;35.40;15.13;;;11.50;99.90;;;10.26;100.00;101069.03;5086338;28;20501;-84
2024/02/16 00:44:10;;;;;;;36.60;15.25;;;11.50;99.90;;;10.22;100.00;101063.94;5079646;28;20039;-82
2024/02/16 00:46:37;;;;;;;34.28;14.75;;;;;;;10.17;100.00;101058.88;5067992;28;20032;-84
2024/02/16 00:49:14;;;;;;;29.40;14.65;;;;;;;10.17;100.00;101065.88;5091868;28;20033;-83
2024/02/16 00:51:48;;;;;;;35.40;15.55;;;11.40;99.90;;;10.13;100.00;101061.66;5085480;28;20025;-82
2024/02/16 00:54:14;;;;;;;35.40;15.98;;;11.40;99.90;;;10.11;100.00;101061.75;5072601;28;20028;-84
2024/02/16 00:56:47;;;;;;;33.17;15.35;;;11.30;99.90;;;10.11;100.00;101063.50;5081826;28;20028;-84
2024/02/16 00:59:26;;;;;;;30.58;14.95;;;11.30;99.90;;;10.09;100.00;101049.56;5067284;28;20036;-83
2024/02/16 01:02:01;;;;;;;30.85;14.55;;;;;;;10.07;100.00;101047.84;5067587;28;20548;-84
2024/02/16 01:04:27;;;;;;;30.93;15.17;;;11.30;99.90;;;10.09;100.00;101049.56;5086995;28;20032;-83
2024/02/16 01:07:00;;;;;;;33.67;15.77;;;11.30;99.90;;;10.08;100.00;101048.69;5072459;28;20025;-84
2024/02/16 01:09:26;;;;;;;36.40;15.68;;;11.30;99.90;;;10.05;100.00;101043.56;5069519;28;20029;-83
2024/02/16 01:11:55;;;;;;;32.90;15.98;;;11.30;99.90;;;10.07;100.00;101047.84;5063195;28;20032;-83
2024/02/16 01:14:32;;;;;;;34.65;16.77;;;11.30;99.90;;;10.04;100.00;101042.72;5088103;28;20458;-83
2024/02/16 01:17:00;;;;;;;32.80;15.35;;;11.30;99.90;;;10.05;100.00;101039.16;5068816;28;20035;-83
2024/02/16 01:19:26;;;;;;;39.65;16.35;;;11.30;99.90;;;10.06;100.00;101034.72;5084822;28;20024;-83
2024/02/16 01:22:00;;;;;;;31.85;15.35;;;;;;;10.09;100.00;101039.03;5069409;28;20107;-83
2024/02/16 01:24:26;;;;;;;34.83;15.90;;;11.30;99.90;;;10.06;100.00;101030.34;5085022;28;20563;-83
2024/02/16 01:26:52;;;;;;;41.45;15.77;;;11.30;99.90;;;10.07;100.00;101036.47;5066604;28;20036;-82
2024/02/16 01:29:25;;;;;;;45.63;15.25;;;;;;;10.12;100.00;101036.28;5084988;28;20031;-83
2024/02/16 01:31:51;;;;;;;31.30;14.05;;;11.30;99.90;;;10.16;100.00;101029.97;5088903;28;20114;-84
2024/02/16 01:34:17;;;;;;;36.58;15.10;;;11.40;99.90;;;10.15;100.00;101025.63;5070617;28;20051;-83
2024/02/16 01:36:45;;;;;;;31.65;14.45;;;11.40;99.90;;;10.20;100.00;101027.16;5070608;28;20045;-84
2024/02/16 01:39:19;;;;;;;27.83;14.85;;;11.40;99.90;;;10.25;100.00;101032.22;5082500;28;20124;-84
2024/02/16 01:41:45;;;;;;;29.55;14.38;;;11.50;99.90;;;10.27;100.00;101025.13;5070954;28;20036;-84
2024/02/16 01:44:23;;;;;;;;;;;;;;;;;;;;;
2024/02/16 01:46:52;;;;;;;35.65;14.55;;;11.50;99.90;;;10.29;100.00;101020.69;5089994;28;20030;-83
2024/02/16 01:49:18;;;;;;;30.48;14.98;;;11.50;99.90;;;10.31;100.00;101023.28;5065418;28;20115;-84
2024/02/16 01:51:54;;;;;;;30.25;13.80;;;11.50;99.90;;;10.33;100.00;101022.28;5066261;28;20043;-83
2024/02/16 01:54:34;;;;;;;31.80;14.45;;;;;;;10.35;100.00;101023.09;5075283;28;20034;-84
2024/02/16 01:57:10;;;;;;;20.40;12.82;;;11.50;99.90;;;10.36;100.00;101018.66;5087025;28;20031;-82
2024/02/16 01:59:37;;;;;;;31.58;14.35;;;11.60;99.90;;;10.37;100.00;101012.50;5072560;28;20123;-83
2024/02/16 02:02:05;;;;;;;28.80;14.10;;;11.60;99.90;;;10.39;100.00;101016.78;5083239;28;20028;-83
2024/02/16 02:04:40;;;;;;;29.20;13.68;;;;;;;10.44;100.00;101021.84;5080626;28;20030;-83
2024/02/16 02:07:34;;;;;;;31.25;13.68;;;11.60;99.90;;;10.41;100.00;101011.44;5087045;28;20756;-83
2024/02/16 02:10:18;;;;;;;24.35;12.57;;;11.60;99.90;;;10.39;100.00;101008.88;5061021;28;20029;-84
2024/02/16 02:12:44;;;;;;;25.13;11.75;;;11.60;99.90;;;10.42;100.00;101011.38;5086306;28;20031;-84
2024/02/16 02:15:26;;;;;;;22.20;11.13;;;11.60;99.90;;;10.42;100.00;101011.38;5075797;28;20043;-83
2024/02/16 02:17:59;;;;;;;21.20;11.57;;;11.60;99.90;;;10.44;100.00;101006.06;5075957;28;20031;-84
2024/02/16 02:20:25;;;;;;;24.13;11.13;;;11.70;99.90;;;10.44;100.00;101011.31;5077225;28;20035;-84
2024/02/16 02:23:08;;;;;;;29.17;11.52;;;11.60;99.90;;;10.44;100.00;101003.41;5073243;28;20024;-83
2024/02/16 02:25:34;;;;;;;23.20;11.88;;;11.60;99.90;;;10.43;100.00;100994.69;5065256;28;20109;-83
2024/02/16 02:28:08;;;;;;;22.83;11.88;;;;;;;10.45;100.00;100990.22;5062202;28;20024;-84
2024/02/16 02:30:34;;;;;;;27.20;11.13;;;;;;;10.45;100.00;100992.84;5084649;28;20870;-83
2024/02/16 02:33:02;;;;;;;25.40;11.20;;;11.70;99.90;;;10.44;100.00;100993.75;5080996;28;20035;-83
2024/02/16 02:35:37;;;;;;;17.65;10.43;;;11.70;99.90;;;10.43;100.00;100991.16;5071486;28;20056;-84
2024/02/16 02:38:05;;;;;;;23.58;10.48;;;11.70;99.90;;;10.44;100.00;100985.00;5075829;28;20379;-83
2024/02/16 02:40:45;;;;;;;31.95;11.05;;;;;;;10.44;100.00;100992.88;5064883;28;20078;-83
2024/02/16 02:43:26;;;;;;;23.08;10.70;;;;;;;10.42;100.00;100984.19;5089966;28;20066;-84
2024/02/16 02:45:58;;;;;;;26.23;10.75;;;11.70;99.90;;;10.42;100.00;100974.53;5082410;28;20813;-83
2024/02/16 02:48:24;;;;;;;24.90;10.23;;;11.60;99.90;;;10.45;100.00;100973.53;5044097;22;20479;-84
2024/02/16 02:51:00;;;;;;;22.45;10.00;;;11.70;99.90;;;10.48;100.00;100975.19;5034876;28;20037;-84
2024/02/16 02:53:31;;;;;;;18.55;9.55;;;11.70;99.90;;;10.49;100.00;100979.53;5020545;28;20120;-82
2024/02/16 02:55:58;;;;;;;22.27;9.55;;;11.70;99.90;;;10.49;100.00;100972.47;5030465;28;20105;-83
2024/02/16 02:58:35;;;;;;;18.75;9.73;;;11.70;99.90;;;10.46;100.00;100965.56;5013280;28;20029;-83
2024/02/16 03:01:11;;;;;;;;;;;;;;;;;;;;;
2024/02/16 03:03:37;;;;;;;17.80;10.18;;;11.70;99.90;;;10.40;100.00;100968.47;5014807;28;20108;-83
2024/02/16 03:06:14;;;;;;;15.63;10.10;;;11.60;99.90;;;10.34;100.00;100960.81;5017117;28;20044;-84
2024/02/16 03:08:42;;;;;;;18.55;10.13;;;11.50;99.90;;;10.30;100.00;100967.13;5027097;28;20035;-83
2024/02/16 03:11:08;;;;;;;25.85;8.77;;;11.50;99.90;;;10.24;100.00;100962.97;4991353;28;20573;-83
2024/02/16 03:13:34;;;;;;;16.73;9.32;;;11.40;99.90;;;10.20;100.00;100965.78;5006073;28;20057;-83
2024/02/16 03:16:06;;;;;;;19.92;10.55;;;11.40;99.90;;;10.20;100.00;100964.00;5017188;28;20030;-84
2024/02/16 03:18:35;;;;;;;22.30;9.52;;;11.40;99.90;;;10.14;100.00;100960.78;5013253;28;20029;-83
2024/02/16 03:21:16;;;;;;;21.17;9.50;;;11.30;99.90;;;10.08;100.00;100964.50;5006187;28;20060;-82
2024/02/16 03:23:52;;;;;;;;;;;;;;;;;;;;;
2024/02/16 03:26:22;;;;;;;21.00;9.43;;;11.20;99.90;;;9.93;100.00;100960.72;5035899;22;20511;-83
2024/02/16 03:28:57;;;;;;;17.13;9.77;;;11.10;99.90;;;9.86;100.00;100954.00;5060297;28;20045;-83
2024/02/16 03:31:25;;;;;;;17.10;9.18;;;11.10;99.90;;;9.80;100.00;100949.81;5064202;28;20074;-83
2024/02/16 03:34:01;;;;;;;18.02;9.07;;;11.00;99.90;;;9.78;100.00;100945.53;5069048;28;20032;-83
2024/02/16 03:36:27;;;;;;;18.83;9.35;;;11.00;99.90;;;9.73;100.00;100948.34;5055688;28;20031;-83
2024/02/16 03:39:08;;;;;;;13.15;8.90;;;;;;;9.70;100.00;100934.47;5048096;28;20040;-83
2024/02/16 03:41:34;;;;;;;16.90;8.98;;;10.90;99.90;;;9.64;100.00;100939.06;5045966;28;20050;-83
2024/02/16 03:44:06;;;;;;;14.73;8.52;;;10.90;99.90;;;9.62;100.00;100938.25;5033439;28;20036;-84
2024/02/16 03:46:32;;;;;;;20.92;9.48;;;10.90;99.90;;;9.62;100.00;100935.63;5030255;28;20025;-83
2024/02/16 03:48:58;;;;;;;17.33;9.50;;;10.90;99.90;;;9.63;100.00;100936.47;5038040;28;20505;-83
2024/02/16 03:51:27;;;;;;;18.60;9.30;;;10.90;99.90;;;9.62;100.00;100938.25;5030063;28;20047;-84
2024/02/16 03:54:04;;;;;;;20.48;9.98;;;10.90;99.90;;;9.61;100.00;100939.19;5036928;28;20064;-84
2024/02/16 03:56:38;;;;;;;17.27;10.15;;;10.90;99.90;;;9.61;100.00;100927.78;5038311;28;20024;-84
2024/02/16 03:59:05;;;;;;;20.23;9.63;;;10.80;99.90;;;9.58;100.00;100930.56;5030427;28;20028;-84
2024/02/16 04:01:48;;;;;;;16.20;8.98;;;10.80;99.90;;;9.56;100.00;100935.88;5030207;28;20047;-83
2024/02/16 04:04:14;;;;;;;14.57;8.63;;;10.80;99.90;;;9.56;100.00;100938.50;5034328;28;20033;-84
2024/02/16 04:07:08;;;;;;;14.75;7.70;;;10.80;99.90;;;9.52;100.00;100926.38;5027900;28;20082;-84
2024/02/16 04:09:34;;;;;;;15.27;8.77;;;10.80;99.90;;;9.50;100.00;100930.00;5031694;28;20044;-84
2024/02/16 04:12:06;;;;;;;14.80;8.00;;;10.70;99.90;;;9.48;100.00;100927.44;5046579;28;20021;-83
2024/02/16 04:14:35;;;;;;;16.35;8.95;;;10.70;99.90;;;9.46;100.00;100924.03;5030498;28;20025;-84
2024/02/16 04:17:08;;;;;;;14.60;8.70;;;10.70;99.90;;;9.38;100.00;100915.56;5034025;28;20051;-84
2024/02/16 04:19:36;;;;;;;18.17;9.43;;;10.70;99.90;;;9.37;100.00;100912.09;5032702;28;20048;-84
2024/02/16 04:22:03;;;;;;;20.73;8.57;;;10.60;99.90;;;9.34;100.00;100913.97;5037560;28;20024;-83
2024/02/16 04:24:29;;;;;;;17.90;8.75;;;10.50;99.90;;;9.21;100.00;100909.19;5032253;28;20487;-83
2024/02/16 04:27:02;;;;;;;19.30;9.13;;;10.50;99.90;;;9.19;100.00;100915.41;5061006;22;20037;-83
2024/02/16 04:29:28;;;;;;;17.52;10.82;;;10.50;99.90;;;9.13;100.00;100903.34;5073250;28;20020;-82
2024/02/16 04:31:54;;;;;;;17.85;9.80;;;10.40;99.90;;;9.13;100.00;100907.75;5064085;28;20023;-83
2024/02/16 04:34:20;;;;;;;17.42;9.75;;;10.40;99.90;;;9.12;100.00;100909.53;5072947;28;20361;-84
2024/02/16 04:36:46;;;;;;;20.50;9.30;;;10.30;99.90;;;9.07;100.00;100906.22;5057469;28;20021;-84
2024/02/16 04:39:23;;;;;;;17.52;9.20;;;10.30;99.90;;;9.06;100.00;100909.75;5058956;28;20039;-84
2024/02/16 04:41:56;;;;;;;17.05;8.70;;;10.30;99.90;;;8.99;100.00;100900.41;5058877;28;20040;-84
2024/02/16 04:44:24;;;;;;;16.50;7.82;;;10.30;99.90;;;8.99;100.00;100896.00;5059698;28;20025;-83
2024/02/16 04:46:52;;;;;;;13.82;7.80;;;10.30;99.90;;;8.98;100.00;100896.91;5079628;23;20561;-83
2024/02/16 04:49:18;;;;;;;15.02;8.43;;;10.30;99.90;;;9.02;100.00;100900.28;5044094;28;20119;-83
2024/02/16 04:51:51;;;;;;;18.38;8.43;;;10.30;99.90;;;9.02;100.00;100897.66;5036662;28;20846;-83
2024/02/16 04:54:17;;;;;;;14.50;8.07;;;10.30;99.90;;;8.98;100.00;100902.16;5047342;28;20212;-84
2024/02/16 04:56:45;;;;;;;18.08;7.18;;;10.20;99.90;;;8.95;100.00;100901.44;5034909;28;20053;-84
2024/02/16 04:59:21;;;;;;;12.60;7.55;;;10.20;99.90;;;8.91;100.00;100892.78;5028634;28;20032;-84
2024/02/16 05:01:47;;;;;;;11.45;6.88;;;10.20;99.90;;;8.92;100.00;100891.03;5030332;28;20036;-83
2024/02/16 05:04:25;;;;;;;16.77;7.50;;;10.20;99.90;;;8.97;100.00;100883.84;5031714;28;20100;-83
2024/02/16 05:06:57;;;;;;;13.93;7.72;;;10.20;99.90;;;8.97;100.00;100886.47;5036159;22;20068;-83
2024/02/16 05:09:26;;;;;;;17.60;6.82;;;10.20;99.90;;;8.96;100.00;100890.88;5010491;28;20048;-83
2024/02/16 05:11:55;;;;;;;14.32;6.22;;;10.30;99.90;;;8.99;100.00;100879.41;5008709;28;20116;-83
2024/02/16 05:14:48;;;;;;;13.77;6.03;;;10.30;99.90;;;8.99;100.00;100871.50;5009469;28;20041;-84
2024/02/16 05:17:16;;;;;;;10.73;5.60;;;10.30;99.90;;;8.99;100.00;100864.47;5003786;28;20029;-83
2024/02/16 05:20:19;;;;;;;;;;;;;;;;;;;;;
2024/02/16 05:22:46;;;;;;;12.20;6.78;;;10.40;99.90;;;9.12;100.00;100864.88;5009329;28;20125;-84
2024/02/16 05:25:15;;;;;;;13.18;6.15;;;;;;;9.16;100.00;100876.13;4973180;28;20034;-84
2024/02/16 05:27:56;;;;;;;20.38;6.93;;;10.40;99.90;;;9.16;100.00;100873.50;4990688;28;20397;-85
2024/02/16 05:30:34;;;;;;;16.10;6.68;;;10.50;99.90;;;9.27;100.00;100873.94;4990442;28;20029;-84
2024/02/16 05:33:08;;;;;;;10.65;6.47;;;10.50;99.90;;;9.21;100.00;100874.19;4975681;28;20034;-83
2024/02/16 05:35:34;;;;;;;12.10;5.72;;;10.50;99.90;;;9.20;100.00;100870.69;4990113;28;20022;-84
2024/02/16 05:38:07;;;;;;;10.73;5.93;;;10.40;99.90;;;9.12;100.00;100864.03;4976831;28;20048;-83
2024/02/16 05:40:56;;;;;;;9.77;5.53;;;10.40;99.90;;;9.11;100.00;100873.66;4981962;28;20022;-85
2024/02/16 05:43:24;;;;;;;12.98;5.65;;;10.40;99.90;;;9.10;100.00;100850.94;5008434;28;20030;-84
2024/02/16 05:45:58;;;;;;;11.48;5.68;;;10.40;99.90;;;9.16;100.00;100853.34;4974704;28;20506;-84
2024/02/16 05:48:26;;;;;;;11.70;4.82;;;10.40;99.90;;;9.13;100.00;100856.06;4972817;28;20018;-83
2024/02/16 05:50:54;;;;;;;12.55;5.85;;;10.40;99.90;;;9.13;100.00;100850.81;4975857;28;20034;-84
2024/02/16 05:53:30;;;;;;;11.55;5.35;;;10.40;99.90;;;9.16;100.00;100848.09;4989469;28;20026;-84
2024/02/16 05:55:56;;;;;;;11.88;5.50;;;;;;;9.15;100.00;100851.59;4974564;28;20036;-84
2024/02/16 05:58:45;;;;;;;13.02;5.72;;;;;;;9.15;100.00;100842.88;4991105;28;20520;-85
2024/02/16 06:01:15;;;;;;;11.82;6.30;;;;;;;9.16;100.00;100848.09;4991773;28;20093;-84
2024/02/16 06:03:57;;;;;;;10.10;5.85;;;;;;;9.17;100.00;100844.53;4985720;28;20053;-83
2024/02/16 06:06:30;;;;;;;9.73;5.53;;;;;;;9.15;100.00;100843.72;5009183;28;20034;-84
2024/02/16 06:08:56;;;;;;;11.70;5.15;;;10.40;99.90;;;9.10;100.00;100839.59;4985934;28;20035;-84
2024/02/16 06:11:24;;;;;;;11.40;6.00;;;10.40;99.90;;;9.11;100.00;100834.25;4977003;28;20033;-84
2024/02/16 06:13:50;;;;;;;9.68;5.55;;;10.40;99.90;;;9.12;100.00;100840.38;4992610;28;20036;-84
2024/02/16 06:16:25;;;;;;;12.02;5.55;;;10.40;99.90;;;9.07;100.00;100826.56;4978478;28;20030;-83
2024/02/16 06:19:00;;;;;;;;;;;;;;;;;;;;;
2024/02/16 06:21:27;;;;;;;11.85;5.15;;;;;;;9.00;100.00;100825.94;4992576;28;20026;-84
2024/02/16 06:23:56;;;;;;;8.65;5.32;;;;;;;9.03;100.00;100820.59;5052253;22;20117;-83
2024/02/16 06:26:45;;;;;;;11.52;6.10;;;10.30;99.90;;;9.01;100.00;100819.78;5034029;28;20395;-85
2024/02/16 06:29:20;;;;;;;10.88;5.90;;;;;;;9.00;100.00;100818.06;5063520;28;20029;-85
2024/02/16 06:32:22;;;;;;;;;;;;;;;;;;;;;
2024/02/16 06:34:48;;;;;;;11.75;5.88;;;10.30;99.90;;;8.95;100.00;100820.00;5034352;28;20037;-84
2024/02/16 06:37:17;;;;;;;14.88;6.15;;;;;;;8.93;100.00;100820.06;5017041;28;20105;-86
2024/02/16 06:39:54;;;;;;;12.80;5.97;;;;;;;8.91;100.00;100824.53;5028045;28;20440;-86
2024/02/16 06:42:34;;;;;;;14.15;6.07;;;10.20;99.90;;;8.88;100.00;100831.69;5016027;28;20107;-85
2024/02/16 06:45:11;;;;;;;;;;;;;;;;;;;;;
2024/02/16 06:47:37;;;;;;;10.48;5.88;;;;;;;8.79;100.00;100825.84;5034510;28;20526;-85
2024/02/16 06:50:07;;;;;;;14.93;6.03;;;10.10;99.90;;;8.78;100.00;100826.75;5016339;28;20036;-86
2024/02/16 06:52:46;;;;;;;11.80;6.13;;;;;;;8.80;100.00;100834.56;5033416;22;21001;-85
2024/02/16 06:55:38;;;;;;;13.38;6.70;;;10.10;99.90;;;8.81;100.00;100831.91;5048461;28;20114;-86
2024/02/16 06:58:06;;;;;;;15.73;7.43;;;10.10;99.90;;;8.84;100.00;100836.19;5006137;28;20128;-86
2024/02/16 07:00:41;;;;;;;14.98;6.68;;;;;;;8.89;100.00;100847.34;5014870;28;20025;-86
2024/02/16 07:03:08;;;;;;;12.60;7.10;;;10.20;99.90;;;8.93;100.00;100835.81;5030711;28;20049;-84
2024/02/16 07:05:59;;;;;;;15.93;6.60;;;10.20;99.90;;;8.95;100.00;100833.16;5010329;28;20029;-84
2024/02/16 07:08:25;;;;;;;14.70;6.93;;;10.20;99.90;;;8.95;100.00;100827.91;5020149;28;20064;-85
2024/02/16 07:10:52;;;;;;;10.77;7.00;;;10.20;99.90;;;8.99;100.00;100832.97;5006633;28;20102;-84
2024/02/16 07:13:18;;;;;;;13.95;8.25;;;;;;;9.07;100.00;100829.19;5008898;28;20546;-85
2024/02/16 07:15:58;;;;;;;13.55;8.00;;;10.30;99.90;;;9.10;100.00;100840.44;5021725;28;20060;-85
2024/02/16 07:18:34;;;;;;;14.48;8.38;;;;;;;9.10;100.00;100839.59;5011261;28;20545;-85
2024/02/16 07:21:00;;;;;;;13.43;8.85;;;10.30;99.90;;;9.11;100.00;100847.38;5030890;28;20042;-84
2024/02/16 07:23:26;;;;;;;16.27;8.32;;;10.40;99.90;;;9.16;100.00;100837.56;5014505;28;20120;-86
2024/02/16 07:26:17;;;;;;;19.77;8.93;;;10.40;99.90;;;9.18;100.00;100840.16;5009468;28;20018;-85
2024/02/16 07:28:46;;;;;;;15.55;8.68;;;10.50;99.90;;;9.23;100.00;100844.28;5001073;28;20492;-84
2024/02/16 07:31:35;;;;;;;15.98;8.88;;;10.50;99.90;;;9.30;100.00;100844.91;5022348;28;20029;-85
2024/02/16 07:34:31;;;;;;;;;;;;;;;;;;;;;
2024/02/16 07:36:58;;;;;;;15.88;8.05;;;10.50;99.90;;;9.24;100.00;100827.63;4941837;29;20035;-85
2024/02/16 07:39:36;;;;;;;18.63;8.27;;;;;;;9.27;100.00;100838.94;4914848;29;20036;-84
2024/02/16 07:42:22;;;;;;;11.40;7.47;;;10.50;99.90;;;9.27;100.00;100828.44;4936230;29;20066;-85
2024/02/16 07:44:57;;;;;;;15.20;8.00;;;;;;;9.29;100.00;100831.81;4918291;29;20122;-84
2024/02/16 07:47:36;;;;;;;16.48;7.90;;;;;;;9.30;100.00;100823.88;4932517;29;20091;-85
2024/02/16 07:50:06;;;;;;;17.17;7.28;;;10.50;99.90;;;9.31;100.00;100825.59;4953309;29;20075;-86
2024/02/16 07:52:56;;;;;;;15.43;7.00;;;10.50;99.90;;;9.29;100.00;100814.31;4952375;23;20044;-85
2024/02/16 07:55:25;;;;;;;16.55;6.75;;;;;;;9.29;100.00;100806.41;5029902;28;20040;-85
2024/02/16 07:57:58;;;;;;;14.50;6.97;;;;;;;9.34;100.00;100809.72;5048394;28;20032;-84
2024/02/16 08:00:28;;;;;;;15.38;7.38;;;;;;;9.41;100.00;100812.94;5048668;28;20055;-85
2024/02/16 08:02:54;;;;;;;11.85;7.47;;;;;;;9.43;100.00;100797.97;5043535;28;20035;-85
2024/02/16 08:05:30;;;;;;;12.95;6.45;;;;;;;9.43;100.00;100800.59;5043133;28;20075;-83
2024/02/16 08:07:57;;;;;;;15.50;7.50;;;;;;;9.43;100.00;100790.94;5044561;28;20125;-84
2024/02/16 08:10:37;;;;;;;15.25;7.18;;;;;;;9.48;100.00;100806.53;5046679;28;20032;-84
2024/02/16 08:13:15;;;;;;;15.45;7.85;;;;;;;9.54;100.00;100806.25;5050019;28;20039;-85
2024/02/16 08:16:06;;;;;;;12.68;6.90;;;;;;;9.58;100.00;100807.84;5044141;28;20088;-84
2024/02/16 08:18:35;;;;;;;13.40;7.03;;;;;;;9.61;100.00;100798.97;5040537;28;20025;-84
2024/02/16 08:21:31;;;;;;;12.60;7.45;;;;;;;9.61;100.00;100802.47;5038483;28;20039;-87
2024/02/16 08:24:09;;;;;;;12.45;7.13;;;;;;;9.61;100.00;100806.88;5038577;28;20055;-85
2024/02/16 08:26:37;;;;;;;15.90;8.20;;;;;;;9.62;100.00;100803.34;5041976;28;20029;-85
2024/02/16 08:29:26;;;;;;;14.07;7.65;;;10.90;99.90;;;9.68;100.00;100803.09;5045722;28;20028;-85
2024/02/16 08:34:38;;;;;;;16.38;8.68;;;11.00;99.90;;;9.78;100.00;100806.16;5106548;22;20090;-84
2024/02/16 08:37:27;;;;;;;14.35;7.95;;;;;;;9.78;100.00;100817.56;5055274;28;20016;-86
2024/02/16 08:39:55;;;;;;;15.68;8.23;;;11.00;99.90;;;9.78;100.00;100804.41;5075956;28;20128;-85
2024/02/16 08:42:23;;;;;;;12.95;8.07;;;;;;;9.79;100.00;100800.00;5075300;28;20028;-84
2024/02/16 08:45:17;;;;;;;13.38;8.18;;;11.10;99.90;;;9.84;100.00;100798.88;5070409;28;20036;-85
2024/02/16 08:48:06;;;;;;;13.57;8.13;;;11.10;99.90;;;9.92;100.00;100801.19;4981124;28;20070;-84
2024/02/16 08:50:48;;;;;;;18.02;8.68;;;11.20;99.90;;;10.02;100.00;100804.25;4970303;28;20164;-85
2024/02/16 08:53:16;;;;;;;20.40;8.10;;;11.20;99.90;;;10.12;100.00;100796.84;4992793;28;20050;-85
2024/02/16 08:56:12;;;;;;;15.10;8.27;;;;;;;10.26;100.00;100805.84;4976953;28;20030;-85
2024/02/16 08:58:38;;;;;;;25.00;8.43;;;11.50;99.90;;;10.40;100.00;100802.63;4992552;28;20046;-85
2024/02/16 09:01:47;;;;;;;16.33;8.32;;;11.70;99.90;;;10.60;100.00;100804.34;4980233;28;20038;-84
2024/02/16 09:07:30;;;;;;;;;;;;;;;;;;;;;
2024/02/16 09:10:02;;;;;;;14.27;6.97;;;;;;;11.08;100.00;100810.94;4985356;28;20042;-85
2024/02/16 09:12:28;;;;;;;12.60;7.50;;;;;;;11.20;100.00;100808.63;4972344;28;20054;-85
2024/02/16 09:15:26;;;;;;;18.30;7.45;;;12.30;99.90;;;11.24;100.00;100795.22;4958865;28;20038;-84
2024/02/16 09:18:03;;;;;;;14.07;6.90;;;;;;;11.33;100.00;100799.19;4897968;29;20036;-85
2024/02/16 09:21:01;;;;;;;14.18;7.28;;;12.50;99.90;;;11.39;100.00;100803.31;4915103;29;20032;-85
2024/02/16 09:23:37;;;;;;;14.13;7.63;;;;;;;11.46;100.00;100800.28;4905049;29;20127;-84
2024/02/16 09:26:09;;;;;;;10.88;6.70;;;;;;;11.52;100.00;100793.88;4934282;29;20588;-86
2024/02/16 09:28:47;;;;;;;13.63;7.13;;;12.70;99.90;;;11.62;100.00;100800.41;4913761;29;20061;-85
2024/02/16 09:31:19;;;;;;;12.75;6.57;;;12.80;99.90;;;11.71;100.00;100793.81;4918657;29;20067;-86
2024/02/16 09:33:48;;;;;;;12.27;7.22;;;12.90;99.90;;;11.82;100.00;100793.28;5012205;23;20102;-85
2024/02/16 09:36:27;;;;;;;13.27;6.65;;;;;;;11.90;100.00;100791.16;5041682;28;20131;-83
2024/02/16 09:39:55;;;;;;;11.80;6.43;;;13.10;99.90;;;12.00;100.00;100789.72;5054479;28;20033;-85
2024/02/16 09:42:19;;;;;;;12.13;6.85;;;;;;;12.13;100.00;100795.22;5052316;28;20066;-84
2024/02/16 09:44:58;;;;;;;10.55;6.85;;;13.30;99.90;;;12.20;100.00;100791.34;5067188;28;20043;-85
2024/02/16 09:47:28;;;;;;;12.15;6.65;;;;;;;12.31;100.00;100794.28;5037770;28;20032;-86
2024/02/16 09:50:45;;;;;;;13.75;6.95;;;13.40;99.90;;;12.37;100.00;100785.16;5064263;28;20024;-86
2024/02/16 09:53:32;;;;;;;16.50;7.27;;;;;;;12.45;100.00;100796.16;5045019;28;20036;-85
2024/02/16 09:56:06;;;;;;;18.48;6.70;;;13.60;99.90;;;12.47;100.00;100796.09;5040591;28;20067;-85
2024/02/16 09:58:39;;;;;;;11.57;6.68;;;;;;;12.47;99.21;100783.72;5036253;28;20489;-86
2024/02/16 10:01:44;;;;;;;;;;;;;;;;;;;;;
2024/02/16 10:04:29;;;;;;;13.60;6.72;;;13.60;99.90;;;12.48;98.06;100785.47;4987938;28;20641;-85
2024/02/16 10:07:05;;;;;;;11.00;6.30;;;13.60;99.90;;;12.52;98.08;100789.63;4984503;28;20113;-85
2024/02/16 10:09:47;;;;;;;10.20;6.38;;;;;;;12.51;98.22;100785.28;4967289;28;20034;-86
2024/02/16 10:12:46;;;;;;;12.38;6.15;;;13.60;99.90;;;12.51;97.20;100790.56;4998680;28;20034;-85
2024/02/16 10:15:24;;;;;;;12.43;6.32;;;;;;;12.57;97.01;100794.69;4974539;28;20043;-86
2024/02/16 10:18:06;;;;;;;11.00;6.28;;;;;;;12.58;96.35;100798.16;4961445;28;20077;-86
2024/02/16 10:21:18;;;;;;;16.13;6.50;;;;;;;12.60;96.05;100801.56;4987105;28;20038;-87
2024/02/16 10:24:14;;;;;;;12.43;6.20;;;13.70;99.90;;;12.63;96.22;100799.59;4915247;29;20051;-87
2024/02/16 10:27:05;;;;;;;11.63;6.05;;;;;;;12.62;95.49;100797.06;4856741;29;20093;-86
2024/02/16 10:32:29;;;;;;;11.70;6.63;;;13.80;99.90;;;12.73;95.72;100789.41;4894919;22;20052;-87
2024/02/16 10:38:10;;;;;;;;;;;;;;;;;;;;;
2024/02/16 10:41:10;;;;;;;12.65;6.57;;;;;;;12.88;95.29;100795.63;4973533;28;20035;-86
2024/02/16 10:43:39;;;;;;;9.50;5.65;;;;;;;12.88;94.50;100787.72;4959296;28;20058;-86
2024/02/16 10:47:08;;;;;;;14.07;6.38;;;14.00;99.90;;;12.88;94.39;100787.72;4942734;28;20039;-86
2024/02/16 10:49:34;;;;;;;;;;;14.00;99.90;;;12.84;93.11;100791.47;4903057;29;20063;-86
2024/02/16 10:52:12;;;;;;;9.43;6.37;;;;;;;12.80;93.11;100784.63;4891750;29;20008;-85
2024/02/16 10:54:49;;;;;;;9.05;5.70;;;13.90;99.90;;;12.76;92.36;100786.59;4899972;29;20048;-86
2024/02/16 10:57:29;;;;;;;13.07;6.03;;;;;;;12.73;92.83;100779.69;4878560;29;20040;-86
2024/02/16 10:59:59;;;;;;;13.07;5.45;;;;;;;12.76;92.96;100777.81;4885853;29;20036;-86
2024/02/16 11:05:59;;;;;;;9.55;5.00;;;13.90;99.90;;;12.84;93.12;100781.72;4918746;29;20072;-85
2024/02/16 11:09:17;;;;;;;11.95;5.45;;;13.90;99.90;;;12.91;92.73;100790.16;4899272;29;20032;-86
2024/02/16 11:12:23;;;;;;;;;;;;;;;;;;;;;
2024/02/16 11:15:08;;;;;;;8.23;4.75;;;;;;;13.18;92.81;100786.94;4801101;29;20053;-85
2024/02/16 11:21:19;;;;;;;8.55;4.43;;;;;;;13.43;91.22;100786.41;4799447;29;20123;-86
2024/02/16 11:24:24;;;;;;;;;;;;;;;;;;;;;
2024/02/16 11:26:54;;;;;;;11.43;5.28;;;14.60;99.90;;;13.65;91.00;100788.66;4797606;29;20041;-85
2024/02/16 11:30:11;;;;;;;;;;;;;;;;;;;;;
2024/02/16 11:32:58;;;;;;;9.75;4.80;;;14.80;99.90;;;13.82;88.29;100785.03;4768042;30;20054;-86
2024/02/16 11:35:39;;;;;;;8.98;4.90;;;;;;;13.92;88.50;100786.19;4777683;29;20135;-86
2024/02/16 11:38:19;;;;;;;8.20;4.53;;;;;;;14.00;89.09;100788.41;4764495;30;20055;-86